createdAt,value
2019-06-20T06:45:35.908Z,3.10
2019-06-20T06:48:07.912Z,3.37
2019-06-20T06:50:40.049Z,3.40
2019-06-20T06:53:11.997Z,3.77
2019-06-20T06:55:44.175Z,3.50
2019-06-20T06:58:16.550Z,3.62
2019-06-20T07:00:48.614Z,3.75
2019-06-20T07:03:20.679Z,3.72
2019-06-20T07:05:52.893Z,3.50
2019-06-20T07:08:25.118Z,3.47
2019-06-20T07:10:57.087Z,3.15
2019-06-20T07:13:30.437Z,2.72
2019-06-20T07:16:03.465Z,3.00
2019-06-20T07:18:35.749Z,2.85
2019-06-20T07:21:07.607Z,3.10
2019-06-20T07:23:39.660Z,3.20
2019-06-20T07:26:11.828Z,2.90
2019-06-20T07:28:43.790Z,3.17
2019-06-20T07:31:15.552Z,3.00
2019-06-20T07:33:47.614Z,3.02
2019-06-20T07:36:19.476Z,2.90
2019-06-20T07:38:51.848Z,3.02
2019-06-20T07:41:24.061Z,2.95
2019-06-20T07:43:56.187Z,2.47
2019-06-20T07:46:28.260Z,3.00
2019-06-20T07:49:01.791Z,2.72
2019-06-20T07:51:33.823Z,2.40
2019-06-20T07:54:06.094Z,2.55
2019-06-20T07:56:38.515Z,2.95
2019-06-20T07:59:10.936Z,2.37
2019-06-20T08:01:43.124Z,2.27
2019-06-20T08:04:15.267Z,2.00
2019-06-20T08:06:48.538Z,2.30
2019-06-20T08:09:22.164Z,2.95
2019-06-20T08:11:54.225Z,2.57
2019-06-20T08:14:26.294Z,2.30
2019-06-20T08:16:58.457Z,2.22
2019-06-20T08:19:30.417Z,2.47
2019-06-20T08:22:02.512Z,2.20
2019-06-20T08:24:34.752Z,2.42
2019-06-20T08:27:06.803Z,2.00
2019-06-20T08:29:38.652Z,1.87
2019-06-20T08:32:10.367Z,2.02
2019-06-20T08:38:38.601Z,2.00
2019-06-20T08:41:10.705Z,2.42
2019-06-20T08:43:43.080Z,2.10
2019-06-20T08:46:14.964Z,2.05
2019-06-20T08:48:46.998Z,1.92
2019-06-20T08:51:19.174Z,2.00
2019-06-20T08:53:51.240Z,1.70
2019-06-20T08:56:23.376Z,1.55
2019-06-20T08:58:57.001Z,2.35
2019-06-20T09:01:29.778Z,1.80
2019-06-20T09:06:34.051Z,2.30
2019-06-20T09:09:07.337Z,2.37
2019-06-20T09:11:39.451Z,1.87
2019-06-20T09:14:11.552Z,2.35
2019-06-20T09:16:43.819Z,2.15
2019-06-20T09:19:15.888Z,1.95
2019-06-20T09:21:48.170Z,2.83
2019-06-20T09:24:20.136Z,1.80
2019-06-20T09:26:52.758Z,1.95
2019-06-20T09:29:38.338Z,2.10
2019-06-20T09:32:00.037Z,2.27
2019-06-20T09:34:32.992Z,2.10
2019-06-20T09:37:05.162Z,2.37
2019-06-20T09:39:37.228Z,2.98
2019-06-20T09:42:10.008Z,2.12
2019-06-20T09:44:42.176Z,2.20
2019-06-20T09:47:14.042Z,1.87
2019-06-20T09:49:49.190Z,2.08
2019-06-20T09:52:19.395Z,2.02
2019-06-20T09:54:53.864Z,2.05
2019-06-20T09:57:25.881Z,2.37
2019-06-20T10:00:07.693Z,1.70
2019-06-20T10:02:31.661Z,2.00
2019-06-20T10:05:05.866Z,2.00
2019-06-20T10:07:37.944Z,2.08
2019-06-20T10:10:11.643Z,1.90
2019-06-20T10:12:43.510Z,1.95
2019-06-20T10:15:24.947Z,2.15
2019-06-20T10:17:56.973Z,1.90
2019-06-20T10:20:29.039Z,2.30
2019-06-20T10:23:01.310Z,2.00
2019-06-20T10:25:33.382Z,2.30
2019-06-20T10:28:05.757Z,2.20
2019-06-20T10:30:37.823Z,2.00
2019-06-20T10:33:09.585Z,2.22
2019-06-20T10:35:41.757Z,1.90
2019-06-20T10:38:13.931Z,2.33
2019-06-20T10:40:46.389Z,1.57
2019-06-20T10:43:19.409Z,1.85
2019-06-20T10:45:52.376Z,1.70
2019-06-20T10:48:24.390Z,1.90
2019-06-20T10:50:58.068Z,2.10
2019-06-20T10:53:30.142Z,2.08
2019-06-20T10:56:02.204Z,1.95
2019-06-20T10:58:34.283Z,2.37
2019-06-20T11:01:06.439Z,2.08
2019-06-20T11:03:39.280Z,2.02
2019-06-20T11:06:12.010Z,1.90
2019-06-20T11:08:45.145Z,1.67
2019-06-20T11:11:17.181Z,2.10
2019-06-20T11:13:49.136Z,2.50
2019-06-20T11:16:21.514Z,2.45
2019-06-20T11:18:53.784Z,1.90
2019-06-20T11:21:25.547Z,2.00
2019-06-20T11:23:57.716Z,2.60
2019-06-20T11:26:29.681Z,1.62
2019-06-20T11:29:01.870Z,1.80
2019-06-20T11:31:33.926Z,2.25
2019-06-20T11:34:05.796Z,2.08
2019-06-20T11:36:38.690Z,2.00
2019-06-20T11:39:10.953Z,2.00
2019-06-20T11:41:43.684Z,2.20
2019-06-20T11:44:15.506Z,2.10
2019-06-20T11:46:47.465Z,1.87
2019-06-20T11:49:19.441Z,2.10
2019-06-20T11:51:51.502Z,2.52
2019-06-20T11:54:23.550Z,2.20
2019-06-20T11:56:55.640Z,2.20
2019-06-20T11:59:28.017Z,2.40
2019-06-20T12:02:00.082Z,2.22
2019-06-20T12:04:31.951Z,2.65
2019-06-20T12:07:04.324Z,1.98
2019-06-20T12:09:36.605Z,1.80
2019-06-20T12:12:08.563Z,1.90
2019-06-20T12:14:42.517Z,1.70
2019-06-20T12:19:46.728Z,1.57
2019-06-20T12:22:18.693Z,1.82
2019-06-20T12:24:50.852Z,1.82
2019-06-20T12:27:22.931Z,2.00
2019-06-20T12:29:55.111Z,1.50
2019-06-20T12:32:27.376Z,1.60
2019-06-20T12:34:59.752Z,1.95
2019-06-20T12:37:31.813Z,1.60
2019-06-20T12:40:06.955Z,1.80
2019-06-20T12:42:41.234Z,1.40
2019-06-20T12:45:12.959Z,1.90
2019-06-20T12:47:46.106Z,1.52
2019-06-20T12:50:18.299Z,1.65
2019-06-20T12:52:50.461Z,1.87
2019-06-20T12:55:22.330Z,1.65
2019-06-20T12:57:54.389Z,1.75
2019-06-20T13:00:26.665Z,1.50
2019-06-20T13:02:58.424Z,2.10
2019-06-20T13:05:30.192Z,1.72
2019-06-20T13:08:02.578Z,1.72
2019-06-20T13:10:34.637Z,1.50
2019-06-20T13:13:06.915Z,1.35
2019-06-20T13:15:39.401Z,1.60
2019-06-20T13:18:12.601Z,1.95
2019-06-20T13:20:44.551Z,1.87
2019-06-20T13:23:16.614Z,1.47
2019-06-20T13:25:48.999Z,1.52
2019-06-20T13:28:20.869Z,1.60
2019-06-20T13:30:53.031Z,1.70
2019-06-20T13:33:25.311Z,1.57
2019-06-20T13:35:57.108Z,1.70
2019-06-20T13:38:29.347Z,1.85
2019-06-20T13:41:01.513Z,2.25
2019-06-20T13:43:33.585Z,1.55
2019-06-20T13:46:05.582Z,1.80
2019-06-20T13:48:38.895Z,1.67
2019-06-20T13:51:11.426Z,1.62
2019-06-20T13:53:44.228Z,1.50
2019-06-20T13:56:16.167Z,1.87
2019-06-20T13:58:48.824Z,1.37
2019-06-20T14:01:20.724Z,1.47
2019-06-20T14:03:53.022Z,1.47
2019-06-20T14:06:24.873Z,1.50
2019-06-20T14:08:56.823Z,1.70
2019-06-20T14:11:28.791Z,1.50
2019-06-20T14:14:00.963Z,1.42
2019-06-20T14:16:33.137Z,1.62
2019-06-20T14:19:05.204Z,2.00
2019-06-20T14:21:37.063Z,1.50
2019-06-20T14:24:09.138Z,1.70
2019-06-20T14:26:43.382Z,1.65
2019-06-20T14:29:14.708Z,1.95
2019-06-20T14:31:49.142Z,1.75
2019-06-20T14:34:22.219Z,1.50
2019-06-20T14:36:54.107Z,1.45
2019-06-20T14:39:25.973Z,1.60
2019-06-20T14:41:58.119Z,1.30
2019-06-20T14:44:30.288Z,1.50
2019-06-20T14:47:02.257Z,1.87
2019-06-20T14:49:34.174Z,1.50
2019-06-20T14:52:05.983Z,1.62
2019-06-20T14:54:38.256Z,1.50
2019-06-20T14:57:10.330Z,1.77
2019-06-20T14:59:43.149Z,2.25
2019-06-20T15:02:15.902Z,1.72
2019-06-20T15:04:48.067Z,1.70
2019-06-20T15:07:20.240Z,1.40
2019-06-20T15:09:53.233Z,1.72
2019-06-20T15:12:25.211Z,1.57
2019-06-20T15:14:57.367Z,1.60
2019-06-20T15:17:29.438Z,1.80
2019-06-20T15:20:01.712Z,1.90
2019-06-20T15:22:33.782Z,1.62
2019-06-20T15:25:06.946Z,1.70
2019-06-20T15:27:38.739Z,1.80
2019-06-20T15:30:10.813Z,1.87
2019-06-20T15:32:55.595Z,1.67
2019-06-20T15:35:17.185Z,1.55
2019-06-20T15:37:51.616Z,1.60
2019-06-20T15:40:23.892Z,1.50
2019-06-20T15:42:56.974Z,1.90
2019-06-20T15:45:29.765Z,1.82
2019-06-20T15:48:01.751Z,2.20
2019-06-20T15:51:02.071Z,1.40
2019-06-20T15:53:36.134Z,1.62
2019-06-20T15:56:08.540Z,1.75
2019-06-20T15:58:40.612Z,1.95
2019-06-20T16:01:12.474Z,2.10
2019-06-20T16:03:44.446Z,2.67
2019-06-20T16:06:16.513Z,3.10
2019-06-20T16:08:48.475Z,2.70
2019-06-20T16:11:20.651Z,2.35
2019-06-20T16:13:52.616Z,2.40
2019-06-20T16:16:24.778Z,2.40
2019-06-20T16:18:56.958Z,1.92
2019-06-20T16:21:29.128Z,2.00
2019-06-20T16:24:00.992Z,2.10
2019-06-20T16:26:33.047Z,2.12
2019-06-20T16:29:06.830Z,2.00
2019-06-20T16:31:39.332Z,2.22
2019-06-20T16:34:11.199Z,1.90
2019-06-20T16:36:43.258Z,2.40
2019-06-20T16:39:15.499Z,2.42
2019-06-20T16:41:47.606Z,2.60
2019-06-20T16:44:21.772Z,2.22
2019-06-20T16:46:53.881Z,2.30
2019-06-20T16:49:25.649Z,1.82
2019-06-20T16:51:57.742Z,2.35
2019-06-20T16:54:29.700Z,2.17
2019-06-20T16:57:01.842Z,2.10
2019-06-20T16:59:34.118Z,1.95
2019-06-20T17:02:06.101Z,2.50
2019-06-20T17:04:37.814Z,2.00
2019-06-20T17:07:09.627Z,1.90
2019-06-20T17:09:41.661Z,1.60
2019-06-20T17:12:13.507Z,1.70
2019-06-20T17:14:45.300Z,1.82
2019-06-20T17:17:18.103Z,2.10
2019-06-20T17:19:50.151Z,2.05
2019-06-20T17:22:22.217Z,2.10
2019-06-20T17:24:54.211Z,2.08
2019-06-20T17:27:26.366Z,2.25
2019-06-20T17:29:58.223Z,2.15
2019-06-20T17:32:30.721Z,2.75
2019-06-20T17:35:02.964Z,2.58
2019-06-20T17:37:34.832Z,2.70
2019-06-20T17:40:08.840Z,3.00
2019-06-20T17:42:40.726Z,2.70
2019-06-20T17:45:13.628Z,3.15
2019-06-20T17:47:45.550Z,2.37
2019-06-20T17:50:17.718Z,3.10
2019-06-20T17:52:49.693Z,2.98
2019-06-20T17:55:22.207Z,3.15
2019-06-20T17:57:54.328Z,3.30
2019-06-20T18:00:26.295Z,3.02
2019-06-20T18:02:58.572Z,3.10
2019-06-20T18:05:31.650Z,3.10
2019-06-20T18:08:14.492Z,2.67
2019-06-20T18:10:37.433Z,3.50
2019-06-20T18:13:09.432Z,3.15
2019-06-20T18:15:41.576Z,3.45
2019-06-20T18:18:13.538Z,3.17
2019-06-20T18:20:45.445Z,3.70
2019-06-20T18:23:17.470Z,3.35
2019-06-20T18:25:49.950Z,3.58
2019-06-20T18:28:22.246Z,3.40
2019-06-20T18:30:54.706Z,3.42
2019-06-20T18:33:26.977Z,4.03
2019-06-20T18:35:58.942Z,3.85
2019-06-20T18:38:31.246Z,3.05
2019-06-20T18:41:03.319Z,3.45
2019-06-20T18:43:35.442Z,3.10
2019-06-20T18:46:07.612Z,3.95
2019-06-20T18:48:39.466Z,3.40
2019-06-20T18:51:11.429Z,3.75
2019-06-20T18:53:43.815Z,3.62
2019-06-20T18:56:15.773Z,3.98
2019-06-20T18:58:47.937Z,3.20
2019-06-20T19:01:20.031Z,3.50
2019-06-20T19:03:52.391Z,3.55
2019-06-20T19:06:35.553Z,3.42
2019-06-20T19:08:58.053Z,3.20
2019-06-20T19:11:30.433Z,3.52
2019-06-20T19:14:03.735Z,3.98
2019-06-20T19:16:36.041Z,3.92
2019-06-20T19:19:08.076Z,4.45
2019-06-20T19:21:40.440Z,3.83
2019-06-20T19:24:12.298Z,4.75
2019-06-20T19:26:44.369Z,4.30
2019-06-20T19:29:16.329Z,4.85
2019-06-20T19:31:48.305Z,5.12
2019-06-20T19:34:20.469Z,3.85
2019-06-20T19:36:52.747Z,3.60
2019-06-20T19:39:25.118Z,4.53
2019-06-20T19:41:57.103Z,5.08
2019-06-20T19:44:29.049Z,5.22
2019-06-20T19:47:01.221Z,5.35
2019-06-20T19:49:33.698Z,4.97
2019-06-20T19:52:05.869Z,3.90
2019-06-20T19:54:38.244Z,2.77
2019-06-20T19:57:10.314Z,3.98
2019-06-20T19:59:42.282Z,3.98
2019-06-20T20:02:14.461Z,3.95
2019-06-20T20:04:46.635Z,3.77
2019-06-20T20:07:18.741Z,3.65
2019-06-20T20:09:51.081Z,4.22
2019-06-20T20:12:23.345Z,3.35
2019-06-20T20:14:55.317Z,3.37
2019-06-20T20:17:27.389Z,3.77
2019-06-20T20:19:59.250Z,3.83
2019-06-20T20:22:31.319Z,3.50
2019-06-20T20:25:06.155Z,3.72
2019-06-20T20:30:13.023Z,3.70
2019-06-20T20:32:45.332Z,3.77
2019-06-20T20:35:31.555Z,3.33
2019-06-20T20:37:51.906Z,3.72
2019-06-20T20:40:25.066Z,3.92
2019-06-20T20:42:57.391Z,3.37
2019-06-20T20:45:29.260Z,3.25
2019-06-20T20:48:01.625Z,3.17
2019-06-20T20:50:33.593Z,3.12
2019-06-20T20:53:05.463Z,3.35
2019-06-20T20:55:37.431Z,3.65
2019-06-20T20:58:09.796Z,3.52
2019-06-20T21:00:59.783Z,3.90
2019-06-20T21:03:31.852Z,3.70
2019-06-20T21:06:03.847Z,2.95
2019-06-20T21:08:35.625Z,2.95
2019-06-20T21:11:07.437Z,3.40
2019-06-20T21:13:39.614Z,3.55
2019-06-20T21:16:11.577Z,4.00
2019-06-20T21:18:43.440Z,3.45
2019-06-20T21:21:15.714Z,3.60
2019-06-20T21:23:47.801Z,3.62
2019-06-20T21:26:19.959Z,3.30
2019-06-20T21:28:52.032Z,4.00
2019-06-20T21:31:24.608Z,3.77
2019-06-20T21:33:57.280Z,3.25
2019-06-20T21:36:29.159Z,3.12
2019-06-20T21:39:01.322Z,3.62
2019-06-20T21:41:35.133Z,2.87
2019-06-20T21:44:07.310Z,3.60
2019-06-20T21:46:39.372Z,3.40
2019-06-20T21:49:11.747Z,2.90
2019-06-20T21:51:44.809Z,3.40
2019-06-20T21:54:16.815Z,4.25
2019-06-20T21:56:48.986Z,3.40
2019-06-20T21:59:20.837Z,3.52
2019-06-20T22:01:54.142Z,3.50
2019-06-20T22:04:26.112Z,3.10
2019-06-20T22:06:58.380Z,3.02
2019-06-20T22:09:30.453Z,3.30
2019-06-20T22:12:02.757Z,3.25
2019-06-20T22:14:34.994Z,2.70
2019-06-20T22:17:07.060Z,2.85
2019-06-20T22:19:40.165Z,2.95
2019-06-20T22:22:12.495Z,2.80
2019-06-20T22:24:44.403Z,3.37
2019-06-20T22:27:16.773Z,3.05
2019-06-20T22:29:48.677Z,3.22
2019-06-20T22:32:21.115Z,3.05
2019-06-20T22:34:53.386Z,3.33
2019-06-20T22:37:25.354Z,2.75
2019-06-20T22:39:57.422Z,3.08
2019-06-20T22:42:29.592Z,3.42
2019-06-20T22:45:01.814Z,3.12
2019-06-20T22:47:33.738Z,3.27
2019-06-20T22:50:10.205Z,3.35
2019-06-20T22:52:42.168Z,2.80
2019-06-20T22:55:14.541Z,3.05
2019-06-20T22:57:46.607Z,2.77
2019-06-20T23:00:18.788Z,3.60
2019-06-20T23:02:50.856Z,4.10
2019-06-20T23:05:23.021Z,2.98
2019-06-20T23:07:55.099Z,3.58
2019-06-20T23:10:27.263Z,3.33
2019-06-20T23:12:59.639Z,3.55
2019-06-20T23:15:31.636Z,2.90
2019-06-20T23:18:03.468Z,3.08
2019-06-20T23:20:35.646Z,2.87
2019-06-20T23:23:07.503Z,2.92
2019-06-20T23:25:41.218Z,3.10
2019-06-20T23:28:13.281Z,3.27
2019-06-20T23:30:45.447Z,3.67
2019-06-20T23:33:17.622Z,2.90
2019-06-20T23:35:49.994Z,2.90
2019-06-20T23:38:21.976Z,2.58
2019-06-20T23:40:54.146Z,2.58
2019-06-20T23:43:26.414Z,2.80
2019-06-20T23:45:58.580Z,2.90
2019-06-20T23:48:33.452Z,2.70
2019-06-20T23:51:04.668Z,3.13
2019-06-20T23:53:36.835Z,2.80
2019-06-20T23:56:08.667Z,2.80
2019-06-20T23:58:41.281Z,3.05
